Time;durP1;ratioP1;P1;durP2;ratioP2;P2;SDS_P1;SDS_P2;PMS_P1;PMS_P2;Temp;Humidity;BMP_temperature;BMP_pressure;BME280_temperature;BME280_humidity;BME280_pressure;Samples;Min_cycle;Max_cycle;Signal;HPM_P1;HPM_P2
2024/02/26 00:01:38;;;;;;;4.25;3.85;;;;;;;6.59;100.00;100477.16;5059862;28;20125;-74
2024/02/26 00:04:03;;;;;;;0.50;0.50;;;;;;;5.83;100.00;100348.16;5046141;28;20749;-73
2024/02/26 00:06:30;;;;;;;0.95;0.95;;;;;;;6.52;100.00;100473.56;5060632;28;20040;-72
2024/02/26 00:08:55;;;;;;;15.40;10.27;;;;;;;5.86;100.00;100369.03;5040341;28;20029;-72
2024/02/26 00:11:21;;;;;;;7.25;6.93;;;;;;;6.43;100.00;100469.06;5036586;28;20311;-72
2024/02/26 00:13:46;;;;;;;6.25;5.95;;;;;;;6.43;100.00;100466.47;5055980;28;20492;-72
2024/02/26 00:16:12;;;;;;;14.30;7.45;;;;;;;6.45;100.00;100484.75;5059417;28;20044;-72
2024/02/26 00:18:38;;;;;;;2.60;2.45;;;;;;;6.26;100.00;100458.34;5054562;28;20048;-72
2024/02/26 00:21:03;;;;;;;20.10;18.70;;;;;;;6.41;100.00;100481.19;5040186;28;20060;-73
2024/02/26 00:23:29;;;;;;;0.55;0.40;;;;;;;6.37;100.00;100476.81;5062292;28;20048;-72
2024/02/26 00:25:55;;;;;;;1.45;1.35;;;;;;;5.60;100.00;100380.69;5059877;28;20647;-72
2024/02/26 00:28:21;;;;;;;10.07;9.20;;;;;;;6.31;100.00;100490.56;5058091;28;20661;-71
2024/02/26 00:30:48;;;;;;;1.35;1.25;;;;;;;5.82;100.00;100421.91;5053383;28;20493;-72
2024/02/26 00:33:17;;;;;;;3.58;3.38;;;;;;;5.70;100.00;100406.03;5062050;28;20044;-72
2024/02/26 00:35:42;;;;;;;7.53;6.85;;;;;;;5.74;100.00;100426.09;5066077;28;20029;-72
2024/02/26 00:38:08;;;;;;;0.73;0.73;;;;;;;5.47;100.00;100380.44;5058422;28;20041;-72
2024/02/26 00:40:34;;;;;;;2.80;2.60;;;;;;;6.22;100.00;100489.53;5044728;28;20044;-72
2024/02/26 00:42:59;;;;;;;14.85;10.50;;;;;;;5.56;100.00;100397.97;5054145;28;20136;-73
2024/02/26 00:45:25;;;;;;;3.00;2.80;;;;;;;6.04;100.00;100483.13;5058570;28;20071;-72
2024/02/26 00:47:50;;;;;;;0.60;0.60;;;;;;;5.61;100.00;100411.06;5066327;28;20464;-72
2024/02/26 00:50:16;;;;;;;0.93;0.93;;;;;;;6.08;100.00;100499.69;5063837;28;20068;-73
2024/02/26 00:52:42;;;;;;;5.35;4.88;;;;;;;6.00;100.00;100478.72;5060716;28;20056;-72
2024/02/26 00:55:08;;;;;;;9.00;8.40;;;;;;;5.36;100.00;100368.03;5064689;28;20041;-73
2024/02/26 00:57:33;;;;;;;4.22;2.05;;;;;;;6.02;100.00;100473.53;5063584;28;20045;-72
2024/02/26 01:00:00;;;;;;;2.05;1.95;;;;;;;5.68;100.00;100384.31;5050787;28;20040;-73
2024/02/26 01:02:26;;;;;;;3.20;3.03;;;;;;;6.18;100.00;100493.81;5045918;28;20066;-73
2024/02/26 01:04:51;;;;;;;1.48;1.42;;;;;;;6.37;100.00;100483.72;5048451;28;20053;-73
2024/02/26 01:07:17;;;;;;;9.73;9.18;;;;;;;5.89;100.00;100439.38;5064203;28;20049;-73
2024/02/26 01:09:42;;;;;;;0.98;0.93;;;;;;;6.07;100.00;100485.78;5066213;28;20486;-73
2024/02/26 01:12:08;;;;;;;1.00;1.00;;;;;;;6.34;100.00;100487.16;5065412;28;20070;-73
2024/02/26 01:14:34;;;;;;;0.47;0.45;;;;;;;6.06;100.00;100405.00;5063775;28;20762;-73
2024/02/26 01:16:59;;;;;;;0.75;0.70;;;;;;;6.23;100.00;100420.97;5074606;28;20472;-73
2024/02/26 01:19:25;;;;;;;10.75;10.18;;;;;;;6.01;100.00;100358.03;5066189;28;20049;-72
2024/02/26 01:21:50;;;;;;;1.20;1.13;;;;;;;6.42;100.00;100462.13;5059570;28;20090;-73
2024/02/26 01:24:18;;;;;;;3.22;3.03;;;;;;;6.38;100.00;100407.31;5065677;28;20040;-74
2024/02/26 01:26:43;;;;;;;0.88;0.88;;;;;;;6.32;100.00;100444.53;5064914;28;20037;-73
2024/02/26 01:29:09;;;;;;;0.40;0.40;;;;;;;6.37;100.00;100421.16;5063941;28;20114;-72
2024/02/26 01:31:34;;;;;;;0.30;0.30;;;;;;;6.63;100.00;100448.56;5061796;28;20044;-73
2024/02/26 01:34:01;;;;;;;1.23;0.95;;;;;;;5.98;100.00;100339.75;5065383;28;20123;-74
2024/02/26 01:36:28;;;;;;;1.30;1.30;;;;;;;6.08;100.00;100367.72;5062711;28;20131;-72
2024/02/26 01:38:53;;;;;;;1.00;1.00;;;;;;;6.62;100.00;100438.97;5067417;28;20675;-73
2024/02/26 01:41:19;;;;;;;3.28;3.10;;;;;;;6.54;100.00;100445.81;5065329;28;20044;-73
2024/02/26 01:43:44;;;;;;;5.10;4.68;;;;;;;6.46;100.00;100418.72;5060779;28;20048;-74
2024/02/26 01:46:13;;;;;;;2.78;2.58;;;;;;;6.24;100.00;100405.34;5062414;28;20055;-74
2024/02/26 01:48:41;;;;;;;8.98;5.15;;;;;;;6.28;100.00;100428.00;5065994;28;20109;-72
2024/02/26 01:51:07;;;;;;;2.35;2.20;;;;;;;6.27;100.00;100402.78;5066407;28;20033;-74
2024/02/26 01:53:33;;;;;;;1.40;0.68;;;;;;;6.11;100.00;100344.34;5063914;28;20327;-73
2024/02/26 01:55:58;;;;;;;2.55;2.45;;;;;;;6.43;100.00;100436.94;5064892;28;20044;-73
2024/02/26 01:58:24;;;;;;;1.00;0.95;;;;;;;6.41;100.00;100436.03;5062350;28;20090;-72
2024/02/26 02:00:50;;;;;;;7.82;7.38;;;;;;;5.66;100.00;100336.53;5062190;28;20048;-72
2024/02/26 02:03:15;;;;;;;2.78;2.67;;;;;;;6.27;100.00;100431.44;5059583;28;20070;-73
2024/02/26 02:05:42;;;;;;;3.90;2.88;;;;;;;6.23;100.00;100432.25;5062242;28;20163;-73
2024/02/26 02:08:11;;;;;;;1.67;1.58;;;;;;;6.21;100.00;100443.50;5065271;28;20639;-72
2024/02/26 02:10:37;;;;;;;2.33;2.22;;;;;;;6.04;100.00;100414.50;5042126;28;20063;-73
2024/02/26 02:13:03;;;;;;;2.90;2.70;;;;;;;5.41;100.00;100328.28;5058590;28;20048;-73
2024/02/26 02:15:29;;;;;;;3.50;3.30;;;;;;;5.68;100.00;100334.84;5057576;28;20468;-72
2024/02/26 02:17:54;;;;;;;1.77;1.50;;;;;;;6.18;100.00;100443.44;5057555;28;20033;-73
2024/02/26 02:20:25;;;;;;;2.20;2.05;;;;;;;6.02;100.00;100455.31;5062348;28;20112;-72
2024/02/26 02:22:50;;;;;;;12.15;11.45;;;;;;;5.21;100.00;100347.81;5061955;28;20492;-72
2024/02/26 02:25:16;;;;;;;5.00;4.80;;;;;;;5.79;100.00;100452.22;5070572;28;20041;-72
2024/02/26 02:27:43;;;;;;;0.30;0.30;;;;;;;4.98;100.00;100318.72;5065931;28;20056;-73
2024/02/26 02:30:09;;;;;;;0.95;0.85;;;;;;;5.56;100.00;100437.00;5068751;28;20025;-73
2024/02/26 02:32:38;;;;;;;5.72;5.38;;;;;;;5.68;100.00;100470.22;5060410;28;20474;-73
2024/02/26 02:35:04;;;;;;;0.40;0.40;;;;;;;5.56;100.00;100457.81;5057513;28;20049;-72
2024/02/26 02:37:29;;;;;;;4.78;4.55;;;;;;;5.61;100.00;100471.81;5069813;28;20082;-72
2024/02/26 02:39:57;;;;;;;8.23;7.65;;;;;;;5.67;100.00;100508.38;5063106;28;20048;-72
2024/02/26 02:42:23;;;;;;;0.68;0.68;;;;;;;5.65;100.00;100504.00;5067447;28;20089;-72
2024/02/26 02:44:49;;;;;;;1.23;0.82;;;;;;;5.40;100.00;100463.53;5066094;28;20677;-73
2024/02/26 02:47:14;;;;;;;0.40;0.40;;;;;;;5.13;100.00;100437.78;5066704;28;20048;-73
2024/02/26 02:49:40;;;;;;;2.60;2.45;;;;;;;5.03;100.00;100437.59;5071467;28;20072;-72
2024/02/26 02:52:06;;;;;;;1.27;1.23;;;;;;;5.23;100.00;100468.38;5061099;28;20048;-73
2024/02/26 02:54:31;;;;;;;2.15;2.05;;;;;;;5.54;100.00;100540.19;5062324;28;21891;-72
2024/02/26 02:56:57;;;;;;;3.05;2.92;;;;;;;4.96;100.00;100445.22;5070181;28;20884;-74
2024/02/26 02:59:22;;;;;;;2.08;1.95;;;;;;;5.54;100.00;100552.31;5064652;28;20055;-74
2024/02/26 03:01:48;;;;;;;0.30;0.30;;;;;;;4.94;100.00;100455.59;5060409;28;20051;-73
2024/02/26 03:04:14;;;;;;;10.95;10.23;;;;;;;4.81;100.00;100456.13;5064532;28;20051;-73
2024/02/26 03:06:40;;;;;;;1.13;1.05;;;;;;;5.44;100.00;100583.34;5059978;28;20041;-73
2024/02/26 03:09:05;;;;;;;0.30;0.30;;;;;;;5.24;100.00;100556.88;5070975;28;20031;-73
2024/02/26 03:11:31;;;;;;;1.20;1.20;;;;;;;4.16;100.00;100396.50;5064805;28;20049;-72
2024/02/26 03:13:57;;;;;;;0.82;0.82;;;;;;;5.28;100.00;100623.72;5047134;28;20052;-72
2024/02/26 03:16:22;;;;;;;0.40;0.40;;;;;;;5.03;100.00;100592.72;5064322;28;20049;-73
2024/02/26 03:18:48;;;;;;;1.95;1.85;;;;;;;4.61;100.00;100550.09;5064318;28;20053;-73
2024/02/26 03:21:13;;;;;;;1.30;1.23;;;;;;;4.94;100.00;100650.59;5065291;28;20028;-72
2024/02/26 03:23:39;;;;;;;0.35;0.35;;;;;;;5.10;100.00;100708.22;5068484;28;20040;-75
2024/02/26 03:26:05;;;;;;;1.23;1.20;;;;;;;4.54;100.00;100630.41;5051673;28;20040;-72
2024/02/26 03:28:33;;;;;;;0.85;0.82;;;;;;;4.77;100.00;100694.31;5065152;28;20134;-72
2024/02/26 03:30:59;;;;;;;3.45;3.33;;;;;;;4.93;100.00;100729.44;5066181;28;20054;-74
2024/02/26 03:33:25;;;;;;;15.88;14.45;;;;;;;4.47;100.00;100685.66;5071921;28;20469;-71
2024/02/26 03:35:50;;;;;;;6.60;6.22;;;;;;;5.10;100.00;100818.31;5073126;28;20051;-73
2024/02/26 03:38:16;;;;;;;1.48;1.40;;;;;;;4.56;100.00;100730.97;5071973;28;20044;-74
2024/02/26 03:40:41;;;;;;;1.08;1.05;;;;;;;5.28;100.00;100865.69;5060683;28;20052;-74
2024/02/26 03:43:07;;;;;;;20.08;18.52;;;;;;;5.50;100.00;100902.72;5075641;28;20040;-75
2024/02/26 03:45:33;;;;;;;0.30;0.30;;;;;;;5.32;100.00;100929.09;5084040;28;20412;-73
2024/02/26 03:47:59;;;;;;;1.20;1.10;;;;;;;4.56;100.00;100821.91;5080080;28;20055;-72
2024/02/26 03:50:24;;;;;;;2.35;2.25;;;;;;;4.65;100.00;100855.13;5071447;28;20172;-73
2024/02/26 03:52:50;;;;;;;0.30;0.30;;;;;;;5.36;100.00;100976.91;5070555;28;20040;-74
2024/02/26 03:55:20;;;;;;;4.60;4.40;;;;;;;5.14;100.00;100965.84;5082552;28;20086;-73
2024/02/26 03:57:46;;;;;;;2.85;2.72;;;;;;;5.40;100.00;101002.19;5075083;28;20047;-75
2024/02/26 04:00:12;;;;;;;1.48;1.42;;;;;;;5.23;100.00;100975.66;5075841;28;20016;-73
2024/02/26 04:02:38;;;;;;;9.23;8.60;;;;;;;5.36;100.00;101029.84;5078602;28;20340;-73
2024/02/26 04:05:04;;;;;;;1.55;1.48;;;;;;;5.22;100.00;101015.50;5062331;28;20040;-73
2024/02/26 04:07:30;;;;;;;4.03;3.70;;;;;;;5.58;100.00;101056.53;5079628;28;20093;-72
2024/02/26 04:09:56;;;;;;;3.13;2.78;;;;;;;4.95;100.00;100943.59;5079769;28;20048;-72
2024/02/26 04:12:21;;;;;;;0.50;0.50;;;;;;;5.08;100.00;100947.47;5085033;28;20035;-72
2024/02/26 04:14:49;;;;;;;0.55;0.55;;;;;;;5.49;100.00;101050.19;5087934;28;20483;-72
2024/02/26 04:17:14;;;;;;;1.27;1.20;;;;;;;5.42;100.00;101065.59;5075735;28;20044;-72
2024/02/26 04:19:40;;;;;;;1.20;1.20;;;;;;;5.44;100.00;101061.31;5081160;28;20694;-72
2024/02/26 04:22:05;;;;;;;2.30;2.13;;;;;;;4.84;100.00;100948.44;5079950;28;20048;-73
2024/02/26 04:24:31;;;;;;;1.38;1.30;;;;;;;5.42;100.00;101049.97;5078107;28;20079;-73
2024/02/26 04:26:56;;;;;;;0.20;0.20;;;;;;;4.80;100.00;100930.09;5078061;28;20075;-74
2024/02/26 04:29:22;;;;;;;2.92;0.50;;;;;;;5.44;100.00;101033.56;5072183;28;20083;-72
2024/02/26 04:31:47;;;;;;;2.30;2.20;;;;;;;4.86;100.00;100912.97;5078009;28;20048;-72
2024/02/26 04:34:13;;;;;;;0.75;0.75;;;;;;;5.43;100.00;101004.88;5084305;28;20139;-72
2024/02/26 04:36:40;;;;;;;3.00;2.80;;;;;;;5.27;100.00;100962.78;5077546;28;20662;-72
2024/02/26 04:39:07;;;;;;;1.45;1.38;;;;;;;5.52;100.00;100962.63;5071270;28;20165;-72
2024/02/26 04:41:32;;;;;;;0.30;0.30;;;;;;;5.43;100.00;100925.09;5086837;28;20437;-72
2024/02/26 04:43:58;;;;;;;2.20;0.80;;;;;;;4.92;100.00;100797.00;5084660;28;20082;-72
2024/02/26 04:46:23;;;;;;;0.50;0.50;;;;;;;5.69;100.00;100878.97;5083808;28;20056;-71
2024/02/26 04:48:49;;;;;;;2.42;2.28;;;;;;;4.91;100.00;100753.63;5065339;28;20577;-73
2024/02/26 04:51:16;;;;;;;0.38;0.38;;;;;;;5.51;100.00;100836.81;5086171;28;20050;-74
2024/02/26 04:53:41;;;;;;;3.90;3.60;;;;;;;5.61;100.00;100819.72;5086784;28;20056;-72
2024/02/26 04:56:08;;;;;;;1.60;1.50;;;;;;;5.72;100.00;100800.06;5080588;28;20072;-73
2024/02/26 04:58:34;;;;;;;0.65;0.65;;;;;;;5.07;100.00;100683.88;5073083;28;20165;-73
2024/02/26 05:00:59;;;;;;;3.80;1.48;;;;;;;5.67;100.00;100765.22;5083474;28;20036;-73
2024/02/26 05:03:25;;;;;;;0.43;0.43;;;;;;;5.21;100.00;100623.53;5061661;28;20079;-72
2024/02/26 05:05:50;;;;;;;2.25;2.15;;;;;;;5.46;100.00;100716.13;5087024;28;20020;-73
2024/02/26 05:08:16;;;;;;;0.43;0.43;;;;;;;5.53;100.00;100698.94;5066910;28;20081;-73
2024/02/26 05:10:43;;;;;;;1.58;1.48;;;;;;;5.87;100.00;100729.25;5084498;28;20052;-73
2024/02/26 05:13:09;;;;;;;11.52;10.73;;;;;;;5.24;100.00;100655.72;5066266;28;20093;-75
2024/02/26 05:15:35;;;;;;;0.85;0.85;;;;;;;4.92;100.00;100608.06;5084041;28;21405;-72
2024/02/26 05:18:01;;;;;;;2.58;2.35;;;;;;;5.43;100.00;100705.59;5084902;28;20472;-76
2024/02/26 05:20:27;;;;;;;2.25;2.15;;;;;;;5.43;100.00;100705.59;5085486;28;20060;-73
2024/02/26 05:22:54;;;;;;;2.30;2.10;;;;;;;5.36;100.00;100693.28;5081587;28;20051;-73
2024/02/26 05:25:19;;;;;;;0.93;0.93;;;;;;;4.70;100.00;100585.81;5065160;28;20082;-73
2024/02/26 05:27:45;;;;;;;0.82;0.82;;;;;;;5.56;100.00;100717.22;5066969;28;20079;-73
2024/02/26 05:30:11;;;;;;;0.65;0.65;;;;;;;5.37;100.00;100695.06;5091901;28;20039;-74
2024/02/26 05:32:37;;;;;;;2.88;2.65;;;;;;;4.83;100.00;100594.84;5086240;28;20052;-74
2024/02/26 05:35:04;;;;;;;2.90;2.70;;;;;;;4.84;100.00;100568.84;5064151;28;20051;-72
2024/02/26 05:37:30;;;;;;;1.98;1.88;;;;;;;5.44;100.00;100695.25;5066593;28;20060;-72
2024/02/26 05:39:55;;;;;;;0.68;0.68;;;;;;;4.93;100.00;100581.22;5079176;28;20040;-73
2024/02/26 05:42:21;;;;;;;2.67;2.58;;;;;;;5.62;100.00;100699.13;5064048;28;20047;-73
2024/02/26 05:44:47;;;;;;;0.43;0.43;;;;;;;4.82;100.00;100585.25;5078163;28;20020;-72
2024/02/26 05:47:13;;;;;;;0.50;0.50;;;;;;;5.15;100.00;100637.28;5074085;28;20120;-75
2024/02/26 05:49:39;;;;;;;0.82;0.82;;;;;;;5.24;100.00;100631.41;5057355;28;20084;-73
2024/02/26 05:52:05;;;;;;;9.95;9.38;;;;;;;5.83;100.00;100693.56;5064211;28;20042;-74
2024/02/26 05:54:31;;;;;;;10.43;9.63;;;;;;;5.77;100.00;100685.63;5073942;28;20060;-73
2024/02/26 05:56:57;;;;;;;0.45;0.45;;;;;;;4.72;100.00;100546.88;5080683;28;20518;-75
2024/02/26 05:59:23;;;;;;;0.32;0.32;;;;;;;4.85;100.00;100577.56;5077921;28;20048;-73
2024/02/26 06:01:48;;;;;;;0.50;0.50;;;;;;;4.92;100.00;100563.00;5084737;28;20413;-73
2024/02/26 06:04:14;;;;;;;2.50;2.40;;;;;;;5.68;100.00;100679.34;5074338;28;20044;-73
2024/02/26 06:06:40;;;;;;;0.93;0.93;;;;;;;5.46;100.00;100669.28;5075068;28;20068;-73
2024/02/26 06:09:07;;;;;;;2.63;2.47;;;;;;;5.05;100.00;100546.84;5048863;28;20446;-72
2024/02/26 06:11:33;;;;;;;17.63;16.08;;;;;;;5.57;100.00;100659.09;5082740;28;20063;-73
2024/02/26 06:13:59;;;;;;;1.25;1.17;;;;;;;4.76;100.00;100544.41;5047818;28;20047;-72
2024/02/26 06:16:24;;;;;;;2.20;2.10;;;;;;;5.14;100.00;100591.28;5080670;28;20047;-73
2024/02/26 06:18:50;;;;;;;13.80;7.55;;;;;;;4.61;100.00;100508.50;5076671;28;20164;-74
2024/02/26 06:21:15;;;;;;;0.30;0.30;;;;;;;4.63;100.00;100534.53;5060509;28;20442;-75
2024/02/26 06:23:41;;;;;;;1.42;1.33;;;;;;;5.20;100.00;100624.41;5057280;28;20043;-76
2024/02/26 06:26:07;;;;;;;1.20;1.10;;;;;;;5.31;100.00;100646.31;5077690;28;20366;-74
2024/02/26 06:28:33;;;;;;;0.60;0.60;;;;;;;5.42;100.00;100644.00;5077213;28;20041;-75
2024/02/26 06:30:59;;;;;;;0.73;0.73;;;;;;;5.22;100.00;100648.69;5074441;28;20514;-76
2024/02/26 06:33:25;;;;;;;3.75;3.47;;;;;;;4.50;100.00;100498.69;5060127;28;20060;-76
2024/02/26 06:35:50;;;;;;;5.45;5.15;;;;;;;4.75;100.00;100526.16;5080927;28;20146;-75
2024/02/26 06:38:17;;;;;;;10.40;9.73;;;;;;;5.11;100.00;100595.56;5080159;28;20048;-75
2024/02/26 06:40:44;;;;;;;1.90;1.80;;;;;;;5.45;100.00;100647.53;5061763;28;20048;-77
2024/02/26 06:43:10;;;;;;;0.52;0.45;;;;;;;5.43;100.00;100619.72;5079487;28;21282;-75
2024/02/26 06:45:36;;;;;;;1.85;1.75;;;;;;;4.89;100.00;100529.97;5074996;28;20048;-76
2024/02/26 06:48:02;;;;;;;0.85;0.85;;;;;;;5.60;100.00;100614.94;5079478;28;20312;-75
2024/02/26 06:50:28;;;;;;;2.60;2.50;;;;;;;5.07;100.00;100538.22;5077849;28;20048;-74
2024/02/26 06:52:53;;;;;;;1.77;1.67;;;;;;;5.04;100.00;100530.38;5079408;28;20032;-74
2024/02/26 06:55:19;;;;;;;2.00;1.90;;;;;;;5.19;100.00;100524.66;5077322;28;20047;-76
2024/02/26 06:57:44;;;;;;;0.73;0.38;;;;;;;5.18;100.00;100527.22;5079178;28;20052;-76
2024/02/26 07:00:14;;;;;;;3.60;1.00;;;;;;;5.72;100.00;100595.28;5079831;28;20527;-74
2024/02/26 07:02:40;;;;;;;0.40;0.40;;;;;;;5.35;100.00;100510.28;5083360;28;20051;-75
2024/02/26 07:05:06;;;;;;;0.98;0.93;;;;;;;5.55;100.00;100536.75;5066044;28;20076;-74
2024/02/26 07:07:32;;;;;;;1.23;1.15;;;;;;;6.23;100.00;100600.75;5080227;28;20462;-75
2024/02/26 07:09:57;;;;;;;1.13;1.10;;;;;;;5.44;100.00;100494.88;5077955;28;20123;-75
2024/02/26 07:12:23;;;;;;;2.35;2.22;;;;;;;5.43;100.00;100482.72;5075444;28;20043;-75
2024/02/26 07:14:52;;;;;;;0.90;0.90;;;;;;;5.93;100.00;100516.72;5077312;28;20055;-74
2024/02/26 07:17:18;;;;;;;1.85;1.75;;;;;;;6.04;100.00;100539.53;5085326;28;20554;-75
2024/02/26 07:19:43;;;;;;;3.67;1.60;;;;;;;6.36;100.00;100552.34;5084987;28;20086;-74
2024/02/26 07:22:09;;;;;;;0.65;0.65;;;;;;;6.49;100.00;100541.31;5087780;28;20041;-76
2024/02/26 07:24:35;;;;;;;0.65;0.65;;;;;;;6.49;100.00;100520.47;5078386;28;20492;-75
2024/02/26 07:27:00;;;;;;;2.70;2.42;;;;;;;6.19;100.00;100469.50;5066473;28;20036;-74
2024/02/26 07:29:26;;;;;;;1.88;1.77;;;;;;;6.90;100.00;100541.16;5064975;28;20056;-74
2024/02/26 07:31:51;;;;;;;2.53;2.15;;;;;;;6.39;100.00;100446.44;5076793;28;20045;-73
2024/02/26 07:34:17;;;;;;;0.68;0.68;;;;;;;6.41;100.00;100456.88;5060408;28;20052;-74
2024/02/26 07:36:42;;;;;;;1.05;0.90;;;;;;;6.27;100.00;100422.75;5075559;28;20044;-74
2024/02/26 07:39:08;;;;;;;3.55;2.08;;;;;;;6.67;100.00;100472.94;5082975;28;20047;-76
2024/02/26 07:41:34;;;;;;;6.93;6.45;;;;;;;7.19;100.00;100525.97;5079937;28;20401;-75
2024/02/26 07:43:59;;;;;;;4.60;4.40;;;;;;;6.95;100.00;100498.66;5080164;28;20459;-76
2024/02/26 07:46:25;;;;;;;1.60;1.50;;;;;;;7.38;100.00;100499.28;5079202;28;20048;-75
2024/02/26 07:48:50;;;;;;;6.35;5.90;;;;;;;6.56;100.00;100384.16;5077958;28;20388;-74
2024/02/26 07:51:17;;;;;;;1.88;1.77;;;;;;;7.31;100.00;100489.63;5072482;28;20124;-74
2024/02/26 07:53:42;;;;;;;0.73;0.73;;;;;;;7.54;100.00;100507.34;5067032;28;20039;-77
2024/02/26 07:56:09;;;;;;;1.10;1.10;;;;;;;7.83;100.00;100502.50;5079112;28;20060;-74
2024/02/26 07:58:36;;;;;;;1.00;1.00;;;;;;;7.10;100.00;100377.13;5081121;28;20067;-75
2024/02/26 08:01:02;;;;;;;1.20;1.15;;;;;;;7.22;100.00;100368.56;5077297;28;20497;-74
2024/02/26 08:03:27;;;;;;;1.77;1.67;;;;;;;7.87;100.00;100492.97;5081013;28;20043;-74
2024/02/26 08:05:54;;;;;;;0.75;0.75;;;;;;;7.38;100.00;100380.97;5083375;28;20042;-76
2024/02/26 08:08:20;;;;;;;0.73;0.73;;;;;;;8.15;100.00;100466.31;5077963;28;20050;-75
2024/02/26 08:10:45;;;;;;;2.25;2.05;;;;;;;8.21;100.00;100473.31;5080588;28;20063;-76
2024/02/26 08:13:11;;;;;;;6.32;2.70;;;;;;;7.51;100.00;100358.47;5083364;28;20080;-75
2024/02/26 08:15:38;;;;;;;1.38;1.27;;;;;;;8.19;100.00;100386.16;5078555;28;20056;-75
2024/02/26 08:18:04;;;;;;;1.00;1.00;;;;;;;8.96;100.00;100466.16;5083090;28;20044;-75
2024/02/26 08:20:30;;;;;;;1.38;1.23;;;;;;;8.87;100.00;100447.78;5064414;28;20055;-75
2024/02/26 08:22:56;;;;;;;6.65;1.38;;;;;;;8.89;100.00;100440.81;5080533;28;20360;-74
2024/02/26 08:25:23;;;;;;;2.25;2.05;;;;;;;8.16;100.00;100331.25;5073584;28;20104;-75
2024/02/26 08:27:48;;;;;;;2.08;1.90;;;;;;;8.91;100.00;100428.63;5076640;28;20052;-75
2024/02/26 08:30:16;;;;;;;1.38;1.27;;;;;;;8.94;100.00;100410.31;5074531;28;20064;-73
2024/02/26 08:32:48;;;;;;;1.23;1.20;;;;;;;9.06;100.00;100426.13;5078099;28;20164;-73
2024/02/26 08:35:14;;;;;;;1.85;1.30;;;;;;;9.24;100.00;100433.19;5058351;28;20040;-75
2024/02/26 08:37:40;;;;;;;1.48;1.38;;;;;;;9.45;100.00;100439.44;5065174;28;20400;-75
2024/02/26 08:40:08;;;;;;;2.58;1.75;;;;;;;9.14;100.00;100418.31;5071645;28;20110;-75
2024/02/26 08:42:34;;;;;;;3.45;3.17;;;;;;;9.63;100.00;100439.50;5064172;28;20048;-75
2024/02/26 08:45:01;;;;;;;1.65;1.55;;;;;;;9.05;100.00;100344.97;5065726;28;20453;-75
2024/02/26 08:47:28;;;;;;;0.40;0.40;;;;;;;9.66;100.00;100417.69;5064174;28;20052;-75
2024/02/26 08:49:53;;;;;;;0.50;0.50;;;;;;;9.40;100.00;100318.94;5058582;28;20095;-75
2024/02/26 08:52:19;;;;;;;4.45;4.22;;;;;;;9.75;100.00;100417.72;5063470;28;20068;-76
2024/02/26 08:54:44;;;;;;;5.82;5.32;;;;;;;9.37;100.00;100331.16;5068539;28;20177;-76
2024/02/26 08:57:10;;;;;;;2.53;2.38;;;;;;;9.72;100.00;100404.63;5068491;28;20050;-76
2024/02/26 08:59:36;;;;;;;0.40;0.40;;;;;;;10.15;100.00;100412.59;5068973;28;20079;-74
2024/02/26 09:02:02;;;;;;;1.75;1.65;;;;;;;10.15;100.00;100362.75;5060779;28;20036;-74
2024/02/26 09:04:28;;;;;;;1.15;1.05;;;;;;;10.12;100.00;100310.34;5072410;28;20088;-75
2024/02/26 09:06:53;;;;;;;4.30;4.00;;;;;;;10.07;100.00;100339.16;5069630;28;20044;-74
2024/02/26 09:09:20;;;;;;;4.10;3.70;;;;;;;10.18;100.00;100436.19;5065162;28;20028;-75
2024/02/26 09:11:46;;;;;;;1.90;1.70;;;;;;;10.32;100.00;100425.75;5073092;28;20036;-74
2024/02/26 09:14:12;;;;;;;0.73;0.73;;;;;;;10.42;100.00;100419.66;5062007;28;20045;-74
2024/02/26 09:16:38;;;;;;;8.50;7.78;;;;;;;10.94;100.00;100406.50;5056862;28;20049;-74
2024/02/26 09:19:03;;;;;;;5.97;3.30;;;;;;;9.99;100.00;100343.50;5066965;28;20539;-73
2024/02/26 09:21:29;;;;;;;1.30;1.15;;;;;;;10.48;100.00;100424.00;5067035;28;20032;-74
2024/02/26 09:23:54;;;;;;;9.50;5.03;;;;;;;10.33;100.00;100331.34;5054040;28;20028;-77
2024/02/26 09:26:20;;;;;;;3.00;2.78;;;;;;;11.06;100.00;100418.72;5064381;28;20064;-75
2024/02/26 09:28:46;;;;;;;10.27;9.63;;;;;;;10.60;100.00;100413.50;5064662;28;20552;-76
2024/02/26 09:31:11;;;;;;;13.93;5.28;;;;;;;10.89;100.00;100420.53;5070251;28;20428;-75
2024/02/26 09:33:37;;;;;;;9.25;2.38;;;;;;;11.04;100.00;100398.59;5071431;28;20051;-75
2024/02/26 09:36:04;;;;;;;0.20;0.20;;;;;;;10.75;100.00;100350.53;5083362;28;20047;-75
2024/02/26 09:38:30;;;;;;;57.72;16.83;;;;;;;11.06;100.00;100394.22;5085026;28;20048;-76
2024/02/26 09:40:57;;;;;;;6.70;5.18;;;;;;;11.11;100.00;100398.56;5082490;28;20058;-75
2024/02/26 09:43:23;;;;;;;0.85;0.85;;;;;;;11.10;100.00;100390.72;5067203;28;20127;-73
2024/02/26 09:45:52;;;;;;;6.43;3.83;;;;;;;10.42;100.00;100306.84;5081927;28;20072;-78
2024/02/26 09:48:17;;;;;;;1.38;1.27;;;;;;;10.99;100.00;100348.72;5061416;28;20044;-77
2024/02/26 09:50:43;;;;;;;3.92;3.25;;;;;;;11.23;100.00;100329.38;5080964;28;20028;-75
2024/02/26 09:53:11;;;;;;;5.40;2.92;;;;;;;11.56;100.00;100282.81;5083364;28;20448;-75
2024/02/26 09:55:37;;;;;;;4.32;4.03;;;;;;;11.55;100.00;100391.44;5059331;28;20123;-73
2024/02/26 09:58:05;;;;;;;0.40;0.40;;;;;;;11.46;100.00;100362.56;5080977;28;20124;-75
2024/02/26 10:00:34;;;;;;;0.30;0.30;;;;;;;11.59;100.00;100395.81;5077173;28;20555;-75
2024/02/26 10:03:05;;;;;;;4.40;3.95;;;;;;;11.20;100.00;100322.38;5080885;28;20471;-75
2024/02/26 10:05:33;;;;;;;4.50;4.10;;;;;;;11.14;100.00;100282.16;5079552;28;20121;-74
2024/02/26 10:08:01;;;;;;;2.65;2.45;;;;;;;11.97;100.00;100385.13;5076093;28;20071;-75
2024/02/26 10:10:29;;;;;;;5.18;3.03;;;;;;;11.95;100.00;100370.22;5080844;28;20062;-75
2024/02/26 10:12:55;;;;;;;4.65;4.20;;;;;;;11.86;100.00;100376.38;5070097;28;20058;-76
2024/02/26 10:15:20;;;;;;;7.07;6.47;;;;;;;12.23;100.00;100377.03;5066128;28;20281;-74
2024/02/26 10:17:47;;;;;;;9.57;5.55;;;;;;;12.63;100.00;100342.50;5081141;28;20028;-74
2024/02/26 10:20:18;;;;;;;10.43;7.30;;;;;;;12.30;100.00;100298.94;5079764;28;20055;-74
2024/02/26 10:22:44;;;;;;;3.85;2.72;;;;;;;12.86;100.00;100358.06;5074015;28;20045;-77
2024/02/26 10:25:10;;;;;;;3.78;3.35;;;;;;;13.02;100.00;100363.19;5054849;28;20059;-74
2024/02/26 10:27:36;;;;;;;14.68;5.50;;;;;;;13.02;100.00;100353.50;5075989;28;20604;-73
2024/02/26 10:30:17;;;;;;;7.10;4.13;;;;;;;13.39;100.00;100355.75;5076936;28;20116;-76
2024/02/26 10:32:45;;;;;;;7.20;4.25;;;;;;;13.36;100.00;100349.63;5070077;28;20048;-75
2024/02/26 10:35:11;;;;;;;5.78;4.80;;;;;;;12.68;100.00;100239.78;5064158;28;20057;-74
2024/02/26 10:37:36;;;;;;;3.13;2.50;;;;;;;12.84;100.00;100256.28;5066191;28;20389;-74
2024/02/26 10:40:03;;;;;;;6.65;4.80;;;;;;;13.04;100.00;100325.41;5045849;28;20139;-76
2024/02/26 10:42:30;;;;;;;4.13;3.28;;;;;;;12.65;100.00;100240.69;5064702;28;20143;-76
2024/02/26 10:44:57;;;;;;;3.47;3.17;;;;;;;13.26;100.00;100330.41;5068508;28;20379;-74
2024/02/26 10:47:24;;;;;;;7.05;2.90;;;;;;;13.21;100.00;100333.09;5062915;28;20063;-74
2024/02/26 10:49:50;;;;;;;4.45;3.65;;;;;;;13.20;100.00;100328.69;5066573;28;20133;-75
2024/02/26 10:52:19;;;;;;;1.65;1.33;;;;;;;13.42;100.00;100310.03;5066692;28;20059;-74
2024/02/26 10:54:47;;;;;;;4.80;3.97;;;;;;;13.87;100.00;100263.66;5072447;28;20067;-74
2024/02/26 10:57:15;;;;;;;2.20;2.00;;;;;;;13.91;100.00;100261.84;5063867;28;20078;-75
2024/02/26 10:59:42;;;;;;;3.17;2.50;;;;;;;13.99;100.00;100310.06;5073902;28;20028;-75
2024/02/26 11:02:10;;;;;;;4.43;4.03;;;;;;;13.46;100.00;100251.97;5071777;28;20644;-75
2024/02/26 11:04:37;;;;;;;10.82;9.10;;;;;;;13.80;100.00;100242.69;5068437;28;20415;-74
2024/02/26 11:07:04;;;;;;;6.75;5.10;;;;;;;14.27;100.00;100307.84;5062204;28;20593;-75
2024/02/26 11:09:31;;;;;;;3.72;3.42;;;;;;;13.58;100.00;100208.75;5063211;28;26194;-74
2024/02/26 11:11:57;;;;;;;5.20;4.65;;;;;;;13.94;100.00;100290.81;5045284;28;20040;-73
2024/02/26 11:14:25;;;;;;;2.42;2.22;;;;;;;13.91;100.00;100278.53;5064603;28;20040;-76
2024/02/26 11:16:51;;;;;;;3.20;2.38;;;;;;;14.10;100.00;100313.41;5066701;28;20167;-74